createdAt,value
2023-04-09T00:02:52.356Z,7.05
2023-04-09T00:07:54.308Z,6.90
2023-04-09T00:12:56.054Z,6.73
2023-04-09T00:17:57.936Z,6.61
2023-04-09T00:22:59.795Z,6.57
2023-04-09T00:28:01.866Z,6.48
2023-04-09T00:33:03.764Z,6.25
2023-04-09T00:38:05.586Z,6.11
2023-04-09T00:43:07.329Z,5.99
2023-04-09T00:48:09.202Z,5.93
2023-04-09T00:53:12.919Z,5.92
2023-04-09T00:58:15.364Z,5.95
2023-04-09T01:03:17.351Z,5.99
2023-04-09T01:09:11.541Z,6.04
2023-04-09T01:14:37.693Z,6.03
2023-04-09T01:20:08.492Z,6.05
2023-04-09T01:25:58.155Z,6.06
2023-04-09T01:31:09.254Z,6.00
2023-04-09T01:36:12.684Z,6.04
2023-04-09T01:41:21.725Z,6.08
2023-04-09T01:46:25.961Z,6.04
2023-04-09T01:51:28.388Z,6.00
2023-04-09T01:56:41.845Z,6.01
2023-04-09T02:01:58.254Z,6.03
2023-04-09T02:07:38.052Z,6.00
2023-04-09T02:12:48.745Z,6.02
2023-04-09T02:17:50.779Z,6.00
2023-04-09T02:22:52.625Z,5.95
2023-04-09T02:27:54.443Z,5.86
2023-04-09T02:32:56.169Z,5.76
2023-04-09T02:37:57.886Z,5.68
2023-04-09T02:42:59.647Z,5.57
2023-04-09T02:48:02.019Z,5.44
2023-04-09T02:53:04.051Z,5.37
2023-04-09T02:58:05.901Z,5.33
2023-04-09T03:03:07.858Z,5.19
2023-04-09T03:08:09.642Z,4.96
2023-04-09T03:13:11.370Z,4.80
2023-04-09T03:18:13.121Z,4.63
2023-04-09T03:23:15.295Z,4.59
2023-04-09T03:28:17.037Z,4.50
2023-04-09T03:33:19.603Z,4.44
2023-04-09T03:38:21.507Z,4.46
2023-04-09T03:43:23.278Z,4.36
2023-04-09T03:48:25.177Z,4.14
2023-04-09T03:53:26.895Z,4.06
2023-04-09T03:58:28.700Z,4.07
2023-04-09T04:03:30.855Z,4.03
2023-04-09T04:08:32.723Z,4.15
2023-04-09T04:13:34.569Z,4.06
2023-04-09T04:18:37.431Z,3.94
2023-04-09T04:23:39.157Z,3.99
2023-04-09T04:28:41.406Z,4.02
2023-04-09T04:33:43.399Z,4.11
2023-04-09T04:38:45.225Z,4.10
2023-04-09T04:43:47.766Z,4.07
2023-04-09T04:48:49.603Z,4.12
2023-04-09T04:53:51.404Z,4.18
2023-04-09T04:58:53.372Z,4.20
2023-04-09T05:03:55.653Z,4.25
2023-04-09T05:08:58.166Z,4.38
2023-04-09T05:13:59.922Z,4.51
2023-04-09T05:19:01.717Z,4.63
2023-04-09T05:24:03.813Z,4.74
2023-04-09T05:29:05.660Z,4.88
2023-04-09T05:34:07.448Z,4.98
2023-04-09T05:39:09.346Z,5.06
2023-04-09T05:44:14.097Z,5.05
2023-04-09T05:49:16.177Z,5.13
2023-04-09T05:54:18.095Z,5.17
2023-04-09T05:59:19.857Z,5.14
2023-04-09T06:04:21.949Z,5.18
2023-04-09T06:09:23.788Z,5.20
2023-04-09T06:14:25.603Z,5.21
2023-04-09T06:19:27.845Z,5.28
2023-04-09T06:24:33.215Z,5.42
2023-04-09T06:29:35.034Z,5.46
2023-04-09T06:34:36.755Z,5.51
2023-04-09T06:39:40.373Z,5.65
2023-04-09T06:44:44.268Z,5.73
2023-04-09T06:49:46.120Z,5.98
2023-04-09T06:54:47.927Z,6.10
2023-04-09T06:59:49.680Z,6.19
2023-04-09T07:04:51.529Z,6.18
2023-04-09T07:09:53.929Z,6.30
2023-04-09T07:15:06.146Z,6.50
2023-04-09T07:20:08.590Z,6.54
2023-04-09T07:25:10.683Z,6.51
2023-04-09T07:30:12.599Z,6.37
2023-04-09T07:35:14.412Z,6.34
2023-04-09T07:40:16.427Z,6.40
2023-04-09T07:45:18.677Z,6.37
2023-04-09T07:50:20.849Z,6.38
2023-04-09T07:55:22.819Z,6.41
2023-04-09T08:00:24.951Z,6.59
2023-04-09T08:05:27.093Z,6.85
2023-04-09T08:10:28.822Z,6.86
2023-04-09T08:15:30.671Z,6.86
2023-04-09T08:20:33.030Z,6.81
2023-04-09T08:25:34.759Z,6.89
2023-04-09T08:30:36.618Z,6.98
2023-04-09T08:35:40.375Z,7.16
2023-04-09T08:40:42.223Z,7.29
2023-04-09T08:45:44.230Z,7.29
2023-04-09T08:50:46.578Z,7.44
2023-04-09T08:55:48.786Z,7.72
2023-04-09T09:00:50.762Z,7.91
2023-04-09T09:05:52.481Z,8.15
2023-04-09T09:10:54.261Z,8.29
2023-04-09T09:16:14.620Z,8.32
2023-04-09T09:21:19.408Z,8.42
2023-04-09T09:26:32.059Z,8.55
2023-04-09T09:31:51.683Z,8.67
2023-04-09T09:36:53.626Z,8.69
2023-04-09T09:42:08.448Z,8.84
2023-04-09T09:47:16.091Z,8.95
2023-04-09T09:52:27.214Z,9.57
2023-04-09T09:57:32.531Z,10.55
2023-04-09T10:02:48.145Z,11.46
2023-04-09T10:07:50.237Z,12.33
2023-04-09T10:12:52.689Z,12.15
2023-04-09T10:17:56.670Z,11.39
2023-04-09T10:23:09.473Z,11.39
2023-04-09T10:28:18.928Z,11.55
2023-04-09T10:33:27.909Z,12.21
2023-04-09T10:38:48.756Z,12.19
2023-04-09T10:43:50.844Z,12.60
2023-04-09T10:49:22.271Z,11.96
2023-04-09T10:54:33.434Z,11.60
2023-04-09T10:59:50.455Z,12.26
2023-04-09T11:05:24.864Z,12.16
2023-04-09T11:10:26.758Z,12.04
2023-04-09T11:15:29.167Z,12.14
2023-04-09T11:20:33.660Z,12.59
2023-04-09T11:25:35.621Z,12.92
2023-04-09T11:30:37.562Z,12.94
2023-04-09T11:35:39.400Z,12.98
2023-04-09T11:40:48.694Z,13.49
2023-04-09T11:45:51.556Z,13.92
2023-04-09T11:50:53.798Z,14.46
2023-04-09T11:55:56.267Z,14.81
2023-04-09T12:01:01.204Z,14.96
2023-04-09T12:06:06.089Z,14.95
2023-04-09T12:11:13.272Z,14.80
2023-04-09T12:16:20.543Z,15.07
2023-04-09T12:21:27.080Z,15.19
2023-04-09T12:26:28.846Z,15.32
2023-04-09T12:31:30.781Z,15.31
2023-04-09T12:36:32.687Z,15.18
2023-04-09T12:41:34.602Z,15.20
2023-04-09T12:46:37.112Z,15.23
2023-04-09T12:51:39.717Z,15.17
2023-04-09T12:56:42.364Z,15.05
2023-04-09T13:01:44.227Z,15.06
2023-04-09T13:06:46.585Z,15.03
2023-04-09T13:11:48.320Z,15.12
2023-04-09T13:16:52.358Z,15.19
2023-04-09T13:21:54.156Z,15.06
2023-04-09T13:26:55.915Z,15.24
2023-04-09T13:31:58.805Z,15.25
2023-04-09T13:37:02.422Z,15.14
2023-04-09T13:42:12.628Z,15.11
2023-04-09T13:47:17.694Z,15.17
2023-04-09T13:52:19.640Z,15.22
2023-04-09T13:57:21.638Z,15.16
2023-04-09T14:02:23.708Z,15.14
2023-04-09T14:07:25.883Z,15.09
2023-04-09T14:12:27.615Z,15.03
2023-04-09T14:17:29.434Z,14.99
2023-04-09T14:22:31.355Z,14.81
2023-04-09T14:27:33.159Z,14.52
2023-04-09T14:32:34.971Z,14.21
2023-04-09T14:37:37.612Z,14.06
2023-04-09T14:42:41.464Z,14.18
2023-04-09T14:47:43.263Z,14.20
2023-04-09T14:52:48.419Z,14.14
2023-04-09T14:57:50.246Z,14.14
2023-04-09T15:02:52.216Z,14.20
2023-04-09T15:07:55.841Z,14.25
2023-04-09T15:12:57.621Z,14.21
2023-04-09T15:18:05.491Z,14.19
2023-04-09T15:23:07.411Z,14.22
2023-04-09T15:28:09.258Z,14.22
2023-04-09T15:33:12.003Z,14.23
2023-04-09T15:38:13.766Z,14.19
2023-04-09T15:43:15.491Z,14.15
2023-04-09T15:48:19.111Z,13.91
2023-04-09T15:53:23.753Z,13.68
2023-04-09T15:58:25.878Z,13.65
2023-04-09T16:03:27.763Z,13.55
2023-04-09T16:08:29.532Z,13.49
2023-04-09T16:13:31.389Z,13.48
2023-04-09T16:18:34.047Z,13.48
2023-04-09T16:23:35.841Z,13.45
2023-04-09T16:28:37.744Z,13.40
2023-04-09T16:33:39.486Z,13.31
2023-04-09T16:38:41.489Z,13.24
2023-04-09T16:43:43.260Z,13.12
2023-04-09T16:48:45.233Z,12.81
2023-04-09T16:53:47.067Z,12.72
2023-04-09T16:58:49.164Z,12.74
2023-04-09T17:03:51.406Z,12.73
2023-04-09T17:08:53.611Z,12.68
2023-04-09T17:13:55.643Z,12.56
2023-04-09T17:18:57.713Z,12.48
2023-04-09T17:24:01.742Z,12.44
2023-04-09T17:29:03.557Z,12.39
2023-04-09T17:34:05.425Z,12.31
2023-04-09T17:39:07.202Z,12.18
2023-04-09T17:44:09.037Z,12.10
2023-04-09T17:49:10.854Z,11.95
2023-04-09T17:54:13.068Z,11.82
2023-04-09T17:59:14.860Z,11.69
2023-04-09T18:04:16.844Z,11.57
2023-04-09T18:09:19.189Z,11.46
2023-04-09T18:14:20.984Z,11.34
2023-04-09T18:19:22.719Z,11.26
2023-04-09T18:24:26.218Z,11.17
2023-04-09T18:29:31.399Z,11.06
2023-04-09T18:34:33.263Z,11.05
2023-04-09T18:39:35.105Z,11.00
2023-04-09T18:44:37.600Z,10.99
2023-04-09T18:49:39.387Z,10.92
2023-04-09T18:54:41.384Z,10.86
2023-04-09T18:59:45.234Z,10.83
2023-04-09T19:04:47.706Z,10.77
2023-04-09T19:09:49.614Z,10.72
2023-04-09T19:14:51.614Z,10.64
2023-04-09T19:19:53.432Z,10.65
2023-04-09T19:24:55.444Z,10.61
2023-04-09T19:29:58.785Z,10.54
2023-04-09T19:35:00.907Z,10.50
2023-04-09T19:40:04.659Z,10.45
2023-04-09T19:45:07.505Z,10.28
2023-04-09T19:50:10.142Z,10.19
2023-04-09T19:55:12.067Z,10.13
2023-04-09T20:00:17.688Z,10.10
2023-04-09T20:05:21.034Z,10.08
2023-04-09T20:10:22.887Z,10.08
2023-04-09T20:15:24.875Z,10.03
2023-04-09T20:20:27.174Z,9.86
2023-04-09T20:25:34.988Z,9.77
2023-04-09T20:30:36.889Z,9.70
2023-04-09T20:35:38.661Z,9.60
2023-04-09T20:40:40.482Z,9.55
2023-04-09T20:45:42.483Z,9.51
2023-04-09T20:50:44.593Z,9.46
2023-04-09T20:55:46.448Z,9.45
2023-04-09T21:00:49.004Z,9.41
2023-04-09T21:05:52.070Z,9.35
2023-04-09T21:10:54.959Z,9.30
2023-04-09T21:16:00.392Z,9.22
2023-04-09T21:21:07.531Z,9.17
2023-04-09T21:26:11.313Z,9.16
2023-04-09T21:31:13.119Z,9.12
2023-04-09T21:36:15.749Z,9.10
2023-04-09T21:41:17.528Z,9.06
2023-04-09T21:46:19.361Z,9.03
2023-04-09T21:51:21.172Z,9.03
2023-04-09T21:56:23.524Z,8.99
2023-04-09T22:01:29.454Z,8.90
2023-04-09T22:06:32.162Z,8.79
2023-04-09T22:11:34.356Z,8.72
2023-04-09T22:16:36.186Z,8.65
2023-04-09T22:21:38.069Z,8.58
2023-04-09T22:26:42.550Z,8.47
2023-04-09T22:31:45.413Z,8.37
2023-04-09T22:36:47.380Z,8.30
2023-04-09T22:41:49.127Z,8.26
2023-04-09T22:46:51.334Z,8.24
2023-04-09T22:51:53.445Z,8.21
2023-04-09T22:56:56.697Z,8.20
2023-04-09T23:01:58.551Z,8.20
2023-04-09T23:07:00.793Z,8.16
2023-04-09T23:12:02.834Z,8.11
2023-04-09T23:17:04.679Z,8.00
2023-04-09T23:22:07.099Z,7.93
2023-04-09T23:27:08.869Z,7.89
2023-04-09T23:32:10.656Z,7.88
2023-04-09T23:37:12.464Z,7.86
2023-04-09T23:42:14.312Z,7.72
2023-04-09T23:47:16.380Z,7.42
2023-04-09T23:52:18.174Z,7.23
2023-04-09T23:57:19.952Z,7.16
